Aeroporto :
LOGIN :

Iscrizione | Disclaimer

   EN    FR    IT 

 










Sommario :    VFR   VFR Marginale   IFR   IFR Intensivo   IFR Molto Intensivo
Visibilità : 
Base nubi : 
>= 8 km
>= 3000ft
5 / 8 km
1000 / 3000 ft
1500m / 5 km
500 / 1000 ft
800 / 1500m
200 / 500 ft
< 800m
< 200 ft
Simboli :   Temporali  Nebbia  Neve Forte  Precipitazioni Forti  Vento > 20 kt
SIGMETs :   Varie  Temporali  Ghiacco  Turbolenza  Onda orograficha  Ceneri Vulcaniche






- Altitudine del aeroporto : 157 ft
- Codice IATA : LIL


LFQQ - Lille Lesquin

ULTIMO METAR :
  • 021930Z AUTO 23009KT 9999 BKN049 BKN058 OVC072 09/04 Q1014 NOSIG

METARs OBSOLETI :
  • 021900Z AUTO 25011KT 9999 BKN049 BKN072 09/03 Q1014 NOSIG
  • 021830Z AUTO 25011KT CAVOK 10/03 Q1014 NOSIG
  • 021800Z AUTO 26011KT CAVOK 10/02 Q1014 NOSIG
  • 021730Z AUTO 26011KT 9999 FEW039 SCT047 BKN054 11/02 Q1013 NOSIG
  • 021700Z AUTO 25010KT 9999 OVC046 11/02 Q1013 NOSIG

TAF TAF LFQQ
Valido dal 02 a 18 ore il 04 a 00 ore UTC


021700Z 0218/0324 24008KT 9999 BKN045
PROB40
TEMPO 0223/0303 4000 RA BKN004 OVC030
BECMG 0310/0312 30010KT
BECMG 0315/0318 VRB03KT
ATIS : +33 3 20 16 19 54



MetMap, La meteo Aeronautica in un colpo d'occhio ! - Copyright ORBIFLY Dicembre 2007 - Disclaimer

ORBIFLY MET'MAP TEAM :

Programmazione e sviluppo : Alexandra Zaïnal
Concezione : Baudouin d'Aumeries
Aiuto per la programmazione : Marc-Olivier Méhu
Supporto tecnico e logistico : Manuel Goepfert
Aiuto per la traduzione : Arnaldo La Scala

Contatto : metmap@orbifly.com




FONTI E CREDITI :

   NOAA